Airport ID:KTSP
Update Time (UTC):26 OCT 20 12:00
Wind Speed (Knots):9
Wind Direction (Magnetic):120
Temperature (°C):4
Dew Point (°C):-17
Humidity (%):21
Altimeter (inHg):30.08
Density Altitude (Feet):
Visibility (Miles):8
Clouds (Hundreds of feet):FEW040
Present Weather:NO PRECIPITATION
METAR:METAR KTSP 261200Z AUTO 13009KT 8SM FEW040 04/M17 A3008 RMK AO2

The data displayed is for advisory purposes only and is not to be used for flight planning or operations.